createdAt,value
2023-05-23T00:01:00.975Z,51.90
2023-05-23T00:03:28.861Z,51.90
2023-05-23T00:05:56.708Z,51.90
2023-05-23T00:08:23.731Z,51.90
2023-05-23T00:10:50.815Z,51.90
2023-05-23T00:13:17.770Z,51.80
2023-05-23T00:15:45.328Z,51.80
2023-05-23T00:18:12.457Z,51.80
2023-05-23T00:20:41.679Z,51.80
2023-05-23T00:23:10.106Z,51.80
2023-05-23T00:25:37.978Z,51.80
2023-05-23T00:28:05.366Z,51.80
2023-05-23T00:30:34.027Z,51.70
2023-05-23T00:33:01.447Z,51.70
2023-05-23T00:35:28.370Z,51.80
2023-05-23T00:37:55.580Z,51.80
2023-05-23T00:40:23.497Z,51.80
2023-05-23T00:42:50.482Z,51.80
2023-05-23T00:45:18.151Z,51.80
2023-05-23T00:47:47.029Z,51.70
2023-05-23T00:50:15.776Z,51.70
2023-05-23T00:52:45.206Z,51.60
2023-05-23T00:55:13.342Z,51.60
2023-05-23T00:57:44.477Z,51.50
2023-05-23T01:00:15.691Z,51.60
2023-05-23T01:02:47.866Z,51.40
2023-05-23T01:05:17.658Z,51.50
2023-05-23T01:07:46.816Z,51.50
2023-05-23T01:10:14.963Z,51.50
2023-05-23T01:13:04.655Z,51.40
2023-05-23T01:16:02.727Z,51.40
2023-05-23T01:18:58.394Z,51.40
2023-05-23T01:21:26.911Z,51.50
2023-05-23T01:24:02.651Z,51.50
2023-05-23T01:26:39.063Z,51.50
2023-05-23T01:29:11.851Z,51.50
2023-05-23T01:31:45.415Z,51.60
2023-05-23T01:34:18.850Z,51.60
2023-05-23T01:36:46.693Z,51.60
2023-05-23T01:39:13.633Z,51.60
2023-05-23T01:41:40.969Z,51.60
2023-05-23T01:44:08.088Z,51.60
2023-05-23T01:46:39.248Z,51.60
2023-05-23T01:49:09.564Z,51.60
2023-05-23T01:51:37.015Z,51.60
2023-05-23T01:54:04.188Z,51.60
2023-05-23T01:56:31.252Z,51.60
2023-05-23T01:58:58.283Z,51.60
2023-05-23T02:01:25.409Z,51.60
2023-05-23T02:03:52.381Z,51.60
2023-05-23T02:06:19.320Z,51.60
2023-05-23T02:08:47.348Z,51.60
2023-05-23T02:11:14.714Z,51.60
2023-05-23T02:13:41.670Z,51.60
2023-05-23T02:16:08.774Z,51.60
2023-05-23T02:18:38.146Z,51.60
2023-05-23T02:21:06.001Z,51.50
2023-05-23T02:23:32.932Z,51.50
2023-05-23T02:25:59.829Z,51.50
2023-05-23T02:28:26.709Z,51.50
2023-05-23T02:30:53.661Z,51.50
2023-05-23T02:33:20.596Z,51.40
2023-05-23T02:35:49.083Z,51.50
2023-05-23T02:38:16.647Z,51.40
2023-05-23T02:40:43.601Z,51.40
2023-05-23T02:43:10.648Z,51.40
2023-05-23T02:45:37.559Z,51.50
2023-05-23T02:48:04.723Z,51.40
2023-05-23T02:50:31.742Z,51.40
2023-05-23T02:52:58.583Z,51.50
2023-05-23T02:55:25.531Z,51.30
2023-05-23T02:57:52.688Z,51.40
2023-05-23T03:00:19.889Z,51.40
2023-05-23T03:02:51.406Z,51.40
2023-05-23T03:05:18.821Z,51.40
2023-05-23T03:07:45.813Z,51.40
2023-05-23T03:10:12.773Z,51.40
2023-05-23T03:12:39.695Z,51.40
2023-05-23T03:15:07.997Z,51.40
2023-05-23T03:17:37.392Z,51.40
2023-05-23T03:20:05.631Z,51.40
2023-05-23T03:22:32.473Z,51.40
2023-05-23T03:24:59.307Z,51.40
2023-05-23T03:27:26.993Z,51.30
2023-05-23T03:29:53.953Z,51.40
2023-05-23T03:32:20.847Z,51.40
2023-05-23T03:34:47.845Z,51.40
2023-05-23T03:37:14.748Z,51.40
2023-05-23T03:39:41.579Z,51.40
2023-05-23T03:42:08.627Z,51.30
2023-05-23T03:44:35.704Z,51.30
2023-05-23T03:47:05.350Z,51.30
2023-05-23T03:49:32.194Z,51.30
2023-05-23T03:51:59.037Z,51.30
2023-05-23T03:54:26.636Z,51.30
2023-05-23T03:56:53.531Z,51.30
2023-05-23T03:59:20.496Z,51.20
2023-05-23T04:01:48.262Z,51.20
2023-05-23T04:04:17.242Z,51.20
2023-05-23T04:06:44.486Z,51.20
2023-05-23T04:09:11.373Z,51.10
2023-05-23T04:11:42.448Z,51.20
2023-05-23T04:14:09.381Z,51.10
2023-05-23T04:16:38.207Z,51.20
2023-05-23T04:19:06.018Z,51.10
2023-05-23T04:21:33.536Z,51.10
2023-05-23T04:24:06.493Z,51.10
2023-05-23T04:26:33.423Z,51.10
2023-05-23T04:29:00.326Z,51.10
2023-05-23T04:31:27.981Z,51.00
2023-05-23T04:33:56.355Z,51.00
2023-05-23T04:36:23.667Z,51.00
2023-05-23T04:38:53.928Z,51.00
2023-05-23T04:41:23.523Z,51.00
2023-05-23T04:44:11.773Z,51.00
2023-05-23T04:46:47.780Z,51.00
2023-05-23T04:49:29.428Z,51.00
2023-05-23T04:51:56.576Z,51.00
2023-05-23T04:54:28.120Z,51.00
2023-05-23T04:56:56.378Z,50.90
2023-05-23T04:59:24.929Z,50.90
2023-05-23T05:01:51.933Z,50.90
2023-05-23T05:04:19.945Z,50.90
2023-05-23T05:06:48.579Z,50.80
2023-05-23T05:09:15.997Z,50.70
2023-05-23T05:11:43.830Z,50.70
2023-05-23T05:14:10.878Z,50.80
2023-05-23T05:16:38.079Z,50.70
2023-05-23T05:19:05.709Z,50.70
2023-05-23T05:21:32.647Z,50.70
2023-05-23T05:24:00.108Z,50.70
2023-05-23T05:26:28.043Z,50.60
2023-05-23T05:28:55.407Z,50.60
2023-05-23T05:31:22.442Z,50.50
2023-05-23T05:33:49.956Z,50.50
2023-05-23T05:36:17.015Z,50.50
2023-05-23T05:38:45.832Z,50.40
2023-05-23T05:41:13.185Z,50.40
2023-05-23T05:43:45.756Z,50.30
2023-05-23T05:46:14.008Z,50.30
2023-05-23T05:48:40.994Z,50.20
2023-05-23T05:51:11.339Z,50.10
2023-05-23T05:53:38.884Z,50.10
2023-05-23T05:56:06.162Z,50.00
2023-05-23T05:58:33.264Z,49.90
2023-05-23T06:01:07.122Z,49.80
2023-05-23T06:03:34.357Z,49.70
2023-05-23T06:06:01.522Z,50.20
2023-05-23T06:08:28.669Z,49.50
2023-05-23T06:10:56.790Z,49.40
2023-05-23T06:13:25.218Z,49.30
2023-05-23T06:15:53.922Z,49.20
2023-05-23T06:18:20.938Z,49.20
2023-05-23T06:20:48.618Z,49.20
2023-05-23T06:23:17.144Z,49.10
2023-05-23T06:25:45.684Z,49.00
2023-05-23T06:28:12.731Z,48.90
2023-05-23T06:30:40.059Z,48.90
2023-05-23T06:33:08.308Z,48.80
2023-05-23T06:35:35.301Z,48.50
2023-05-23T06:38:02.239Z,48.20
2023-05-23T06:40:29.266Z,48.20
2023-05-23T06:42:56.588Z,48.30
2023-05-23T06:45:40.077Z,48.20
2023-05-23T06:48:07.015Z,48.20
2023-05-23T06:50:36.236Z,48.10
2023-05-23T06:53:03.786Z,48.10
2023-05-23T06:55:31.933Z,48.20
2023-05-23T06:57:58.820Z,48.30
2023-05-23T07:00:26.173Z,48.20
2023-05-23T07:03:07.553Z,48.30
2023-05-23T07:05:37.420Z,48.30
2023-05-23T07:08:07.795Z,48.30
2023-05-23T07:10:35.408Z,48.30
2023-05-23T07:13:14.405Z,48.30
2023-05-23T07:15:41.333Z,48.20
2023-05-23T07:18:13.605Z,48.10
2023-05-23T07:20:40.872Z,48.00
2023-05-23T07:23:16.156Z,47.90
2023-05-23T07:25:53.793Z,47.90
2023-05-23T07:28:29.428Z,48.10
2023-05-23T07:30:58.328Z,48.20
2023-05-23T07:33:25.567Z,48.40
2023-05-23T07:35:57.655Z,48.50
2023-05-23T07:38:26.293Z,48.60
2023-05-23T07:41:06.784Z,48.60
2023-05-23T07:43:38.390Z,48.70
2023-05-23T07:46:05.950Z,48.70
2023-05-23T07:48:33.476Z,48.70
2023-05-23T07:51:01.089Z,48.80
2023-05-23T07:53:28.727Z,48.70
2023-05-23T07:55:56.734Z,48.60
2023-05-23T07:58:26.391Z,48.80
2023-05-23T08:00:53.634Z,48.80
2023-05-23T08:03:46.955Z,48.80
2023-05-23T08:06:21.250Z,48.60
2023-05-23T08:08:48.214Z,48.40
2023-05-23T08:11:15.620Z,48.40
2023-05-23T08:13:46.474Z,48.30
2023-05-23T08:16:37.761Z,49.10
2023-05-23T08:19:09.086Z,48.30
2023-05-23T08:21:36.448Z,48.30
2023-05-23T08:24:03.597Z,48.40
2023-05-23T08:26:34.927Z,48.50
2023-05-23T08:29:03.997Z,48.60
2023-05-23T08:31:34.031Z,48.50
2023-05-23T08:34:02.313Z,48.30
2023-05-23T08:36:30.094Z,48.20
2023-05-23T08:38:56.993Z,48.10
2023-05-23T08:41:29.761Z,47.90
2023-05-23T08:44:03.664Z,47.70
2023-05-23T08:46:41.132Z,47.40
2023-05-23T08:49:08.815Z,47.20
2023-05-23T08:51:37.816Z,46.90
2023-05-23T08:54:14.972Z,46.70
2023-05-23T08:56:44.139Z,46.70
2023-05-23T08:59:12.166Z,46.60
2023-05-23T09:01:41.746Z,46.70
2023-05-23T09:04:12.177Z,46.60
2023-05-23T09:06:56.841Z,46.50
2023-05-23T09:09:25.171Z,46.30
2023-05-23T09:11:54.425Z,46.20
2023-05-23T09:14:22.561Z,46.00
2023-05-23T09:16:51.901Z,45.90
2023-05-23T09:19:22.601Z,45.80
2023-05-23T09:21:56.125Z,45.60
2023-05-23T09:24:36.676Z,45.60
2023-05-23T09:27:07.389Z,45.30
2023-05-23T09:29:40.779Z,45.20
2023-05-23T09:32:12.044Z,45.00
2023-05-23T09:34:59.874Z,45.00
2023-05-23T09:37:32.945Z,45.10
2023-05-23T09:40:01.785Z,44.90
2023-05-23T09:42:36.712Z,44.80
2023-05-23T09:45:04.910Z,44.80
2023-05-23T09:47:32.450Z,44.70
2023-05-23T09:49:59.415Z,44.70
2023-05-23T09:52:27.024Z,44.60
2023-05-23T09:54:54.663Z,44.50
2023-05-23T09:57:23.796Z,44.50
2023-05-23T09:59:56.459Z,44.40
2023-05-23T10:03:00.256Z,44.40
2023-05-23T10:05:49.155Z,44.30
2023-05-23T10:08:24.013Z,44.30
2023-05-23T10:10:57.178Z,44.30
2023-05-23T10:13:28.701Z,44.30
2023-05-23T10:16:17.504Z,44.20
2023-05-23T10:18:45.301Z,44.10
2023-05-23T10:21:15.604Z,44.20
2023-05-23T10:23:44.593Z,44.20
2023-05-23T10:26:11.977Z,44.20
2023-05-23T10:28:40.914Z,44.20
2023-05-23T10:31:08.567Z,44.20
2023-05-23T10:33:43.760Z,44.10
2023-05-23T10:36:19.329Z,44.10
2023-05-23T10:38:58.702Z,44.20
2023-05-23T10:41:43.460Z,44.20
2023-05-23T10:44:21.009Z,44.20
2023-05-23T10:46:53.884Z,44.20
2023-05-23T10:49:41.931Z,44.20
2023-05-23T10:52:11.443Z,44.30
2023-05-23T10:54:45.549Z,44.30
2023-05-23T10:57:16.641Z,44.20
2023-05-23T10:59:44.990Z,44.30
2023-05-23T11:02:16.916Z,44.20
2023-05-23T11:04:44.021Z,44.20
2023-05-23T11:07:31.165Z,44.20
2023-05-23T11:10:19.277Z,44.20
2023-05-23T11:12:46.206Z,44.20
2023-05-23T11:15:21.887Z,44.40
2023-05-23T11:17:57.532Z,44.30
2023-05-23T11:20:27.426Z,44.30
2023-05-23T11:23:07.844Z,44.40
2023-05-23T11:25:58.818Z,44.30
2023-05-23T11:28:25.772Z,44.30
2023-05-23T11:30:52.744Z,44.40
2023-05-23T11:33:20.907Z,44.20
2023-05-23T11:35:49.709Z,44.10
2023-05-23T11:38:17.454Z,44.00
2023-05-23T11:40:46.789Z,44.00
2023-05-23T11:43:16.596Z,43.90
2023-05-23T11:45:43.992Z,43.80
2023-05-23T11:48:13.201Z,43.80
2023-05-23T11:50:54.071Z,43.70
2023-05-23T11:53:25.009Z,43.70
2023-05-23T11:55:57.734Z,43.90
2023-05-23T11:58:30.274Z,44.00
2023-05-23T12:01:08.747Z,44.10
2023-05-23T12:03:46.674Z,44.00
2023-05-23T12:06:19.173Z,43.90
2023-05-23T12:08:47.801Z,43.80
2023-05-23T12:11:15.048Z,43.70
2023-05-23T12:13:42.612Z,43.70
2023-05-23T12:16:09.702Z,43.70
2023-05-23T12:18:38.299Z,43.70
2023-05-23T12:21:10.602Z,43.80
2023-05-23T12:23:39.475Z,43.80
2023-05-23T12:26:07.925Z,43.80
2023-05-23T12:28:44.867Z,43.80
2023-05-23T12:31:33.270Z,43.70
2023-05-23T12:34:00.369Z,43.70
2023-05-23T12:36:32.300Z,43.80
2023-05-23T12:39:03.526Z,43.70
2023-05-23T12:41:32.161Z,43.80
2023-05-23T12:43:59.474Z,43.70
2023-05-23T12:46:27.496Z,43.80
2023-05-23T12:48:55.009Z,43.60
2023-05-23T12:51:22.366Z,43.80
2023-05-23T12:53:49.284Z,43.90
2023-05-23T12:56:16.168Z,43.80
2023-05-23T12:58:43.760Z,43.60
2023-05-23T13:01:11.413Z,43.60
2023-05-23T13:03:38.418Z,43.50
2023-05-23T13:06:05.777Z,43.40
2023-05-23T13:08:32.835Z,43.40
2023-05-23T13:10:59.963Z,43.40
2023-05-23T13:13:26.920Z,43.20
2023-05-23T13:15:53.891Z,43.20
2023-05-23T13:18:20.989Z,43.10
2023-05-23T13:20:47.923Z,43.10
2023-05-23T13:23:14.989Z,43.10
2023-05-23T13:25:42.199Z,43.10
2023-05-23T13:28:09.541Z,43.10
2023-05-23T13:30:36.481Z,43.10
2023-05-23T13:33:03.630Z,43.20
2023-05-23T13:35:30.593Z,43.10
2023-05-23T13:37:57.549Z,42.90
2023-05-23T13:40:24.535Z,42.90
2023-05-23T13:42:51.916Z,42.80
2023-05-23T13:45:20.018Z,42.80
2023-05-23T13:47:47.375Z,42.70
2023-05-23T13:50:14.836Z,42.70
2023-05-23T13:52:44.876Z,42.60
2023-05-23T13:55:13.493Z,42.60
2023-05-23T13:57:40.345Z,42.50
2023-05-23T14:00:08.905Z,42.40
2023-05-23T14:02:35.945Z,42.40
2023-05-23T14:05:03.611Z,42.40
2023-05-23T14:07:30.952Z,42.20
2023-05-23T14:09:58.307Z,42.30
2023-05-23T14:12:26.169Z,42.30
2023-05-23T14:14:53.117Z,42.10
2023-05-23T14:17:19.994Z,42.00
2023-05-23T14:19:47.487Z,42.00
2023-05-23T14:22:14.670Z,41.90
2023-05-23T14:24:41.643Z,41.70
2023-05-23T14:27:10.845Z,41.70
2023-05-23T14:29:38.860Z,41.80
2023-05-23T14:32:06.168Z,41.90
2023-05-23T14:34:33.179Z,42.00
2023-05-23T14:37:01.128Z,42.10
2023-05-23T14:39:29.081Z,42.20
2023-05-23T14:41:56.215Z,42.50
2023-05-23T14:44:23.371Z,42.50
2023-05-23T14:46:50.691Z,42.20
2023-05-23T14:49:17.890Z,42.10
2023-05-23T14:51:49.096Z,42.10
2023-05-23T14:54:18.553Z,41.90
2023-05-23T14:56:45.680Z,41.80
2023-05-23T14:59:12.768Z,41.50
2023-05-23T15:01:40.642Z,41.40
2023-05-23T15:04:09.288Z,41.20
2023-05-23T15:06:39.260Z,41.00
2023-05-23T15:09:07.648Z,40.70
2023-05-23T15:11:38.974Z,40.60
2023-05-23T15:14:06.216Z,40.40
2023-05-23T15:16:33.508Z,40.30
2023-05-23T15:19:00.690Z,40.00
2023-05-23T15:21:28.144Z,39.90
2023-05-23T15:23:55.093Z,39.70
2023-05-23T15:26:22.519Z,39.70
2023-05-23T15:28:49.634Z,39.50
2023-05-23T15:31:16.742Z,39.20
2023-05-23T15:33:43.769Z,39.00
2023-05-23T15:36:13.132Z,39.00
2023-05-23T15:38:40.364Z,39.20
2023-05-23T15:41:07.334Z,39.00
2023-05-23T15:43:35.579Z,38.90
2023-05-23T15:46:02.774Z,38.60
2023-05-23T15:48:29.803Z,38.50
2023-05-23T15:50:56.770Z,38.30
2023-05-23T15:53:23.677Z,38.30
2023-05-23T15:55:50.608Z,38.30
2023-05-23T15:58:17.452Z,38.20
2023-05-23T16:00:44.417Z,38.30
2023-05-23T16:03:11.480Z,38.30
2023-05-23T16:05:38.601Z,38.30
2023-05-23T16:08:05.580Z,38.20
2023-05-23T16:10:32.514Z,38.20
2023-05-23T16:12:59.360Z,38.20
2023-05-23T16:15:26.249Z,38.10
2023-05-23T16:17:53.251Z,38.10
2023-05-23T16:20:20.091Z,38.30
2023-05-23T16:22:47.092Z,38.20
2023-05-23T16:25:14.090Z,38.10
2023-05-23T16:27:41.001Z,37.90
2023-05-23T16:30:08.551Z,37.60
2023-05-23T16:32:35.653Z,37.50
2023-05-23T16:35:02.693Z,37.30
2023-05-23T16:37:29.611Z,37.30
2023-05-23T16:39:56.548Z,37.20
2023-05-23T16:42:23.540Z,37.20
2023-05-23T16:44:50.446Z,37.20
2023-05-23T16:47:17.445Z,37.20
2023-05-23T16:49:44.486Z,37.20
2023-05-23T16:52:11.624Z,37.20
2023-05-23T16:54:38.801Z,37.10
2023-05-23T16:57:06.123Z,37.00
2023-05-23T16:59:33.094Z,37.00
2023-05-23T17:02:00.197Z,36.90
2023-05-23T17:04:27.108Z,36.90
2023-05-23T17:06:54.129Z,36.90
2023-05-23T17:09:22.476Z,36.90
2023-05-23T17:11:50.502Z,36.90
2023-05-23T17:14:17.658Z,36.80
2023-05-23T17:16:44.712Z,37.70
2023-05-23T17:19:11.688Z,36.80
2023-05-23T17:21:38.698Z,36.80
2023-05-23T17:24:06.016Z,36.60
2023-05-23T17:26:32.946Z,36.60
2023-05-23T17:28:59.957Z,36.60
2023-05-23T17:31:29.655Z,36.70
2023-05-23T17:33:57.617Z,36.50
2023-05-23T17:36:24.502Z,36.40
2023-05-23T17:38:53.762Z,36.40
2023-05-23T17:41:23.196Z,36.30
2023-05-23T17:43:50.732Z,36.30
2023-05-23T17:46:17.695Z,36.30
2023-05-23T17:48:47.154Z,36.30
2023-05-23T17:51:15.718Z,36.40
2023-05-23T17:53:42.871Z,36.40
2023-05-23T17:56:10.353Z,36.30
2023-05-23T17:58:38.534Z,36.20
2023-05-23T18:01:06.933Z,36.20
2023-05-23T18:03:33.927Z,36.20
2023-05-23T18:06:00.854Z,36.20
2023-05-23T18:08:27.946Z,36.10
2023-05-23T18:10:54.801Z,36.10
2023-05-23T18:13:21.933Z,36.10
2023-05-23T18:15:48.840Z,36.20
2023-05-23T18:18:19.111Z,36.30
2023-05-23T18:20:46.319Z,36.20
2023-05-23T18:23:13.277Z,36.30
2023-05-23T18:25:40.128Z,36.40
2023-05-23T18:28:07.132Z,36.40
2023-05-23T18:30:34.017Z,36.40
2023-05-23T18:33:01.112Z,36.50
2023-05-23T18:35:28.450Z,36.50
2023-05-23T18:37:55.454Z,36.40
2023-05-23T18:40:23.964Z,36.40
2023-05-23T18:42:51.228Z,36.40
2023-05-23T18:45:18.250Z,36.30
2023-05-23T18:47:45.262Z,36.30
2023-05-23T18:50:13.321Z,36.40
2023-05-23T18:52:40.772Z,36.50
2023-05-23T18:55:08.193Z,36.50
2023-05-23T18:57:35.044Z,36.50
2023-05-23T19:00:03.387Z,36.60
2023-05-23T19:02:30.309Z,36.60
2023-05-23T19:04:57.284Z,36.80
2023-05-23T19:07:24.158Z,37.10
2023-05-23T19:09:51.384Z,37.10
2023-05-23T19:12:19.478Z,37.10
2023-05-23T19:14:46.603Z,37.00
2023-05-23T19:17:13.460Z,37.40
2023-05-23T19:19:40.518Z,37.50
2023-05-23T19:22:07.437Z,37.70
2023-05-23T19:24:34.307Z,37.60
2023-05-23T19:27:02.316Z,37.40
2023-05-23T19:29:29.250Z,37.30
2023-05-23T19:31:57.395Z,37.30
2023-05-23T19:34:24.320Z,37.30
2023-05-23T19:36:51.410Z,37.60
2023-05-23T19:39:18.385Z,37.70
2023-05-23T19:41:45.249Z,37.60
2023-05-23T19:44:13.212Z,37.50
2023-05-23T19:46:40.205Z,37.40
2023-05-23T19:49:08.290Z,37.40
2023-05-23T19:51:36.663Z,37.40
2023-05-23T19:54:03.993Z,37.40
2023-05-23T19:56:31.049Z,37.50
2023-05-23T19:58:57.912Z,37.70
2023-05-23T20:01:24.896Z,38.10
2023-05-23T20:03:52.346Z,38.20
2023-05-23T20:06:20.681Z,38.40
2023-05-23T20:08:47.854Z,38.60
2023-05-23T20:11:14.805Z,38.70
2023-05-23T20:13:41.727Z,38.70
2023-05-23T20:16:09.000Z,38.80
2023-05-23T20:18:36.219Z,38.80
2023-05-23T20:21:05.136Z,38.70
2023-05-23T20:23:32.327Z,38.40
2023-05-23T20:25:59.532Z,38.20
2023-05-23T20:28:27.372Z,39.10
2023-05-23T20:30:54.284Z,38.20
2023-05-23T20:33:21.779Z,38.30
2023-05-23T20:35:48.888Z,38.30
2023-05-23T20:38:18.525Z,38.30
2023-05-23T20:40:49.244Z,38.30
2023-05-23T20:43:18.585Z,38.40
2023-05-23T20:45:45.430Z,38.60
2023-05-23T20:48:12.315Z,38.50
2023-05-23T20:50:40.607Z,38.60
2023-05-23T20:53:07.797Z,38.60
2023-05-23T20:55:35.730Z,38.60
2023-05-23T20:58:02.625Z,38.60
2023-05-23T21:00:29.490Z,38.60
2023-05-23T21:02:56.733Z,38.60
2023-05-23T21:05:23.843Z,38.60
2023-05-23T21:07:50.764Z,38.60
2023-05-23T21:10:17.740Z,38.60
2023-05-23T21:12:50.202Z,38.60
2023-05-23T21:15:18.009Z,38.80
2023-05-23T21:17:45.320Z,38.80
2023-05-23T21:20:13.031Z,38.80
2023-05-23T21:22:40.118Z,38.80
2023-05-23T21:25:07.280Z,38.90
2023-05-23T21:27:34.230Z,38.90
2023-05-23T21:30:01.208Z,38.90
2023-05-23T21:32:29.072Z,38.90
2023-05-23T21:34:56.467Z,38.90
2023-05-23T21:37:24.086Z,39.00
2023-05-23T21:39:52.626Z,38.90
2023-05-23T21:42:21.006Z,39.10
2023-05-23T21:44:48.297Z,39.30
2023-05-23T21:47:15.291Z,39.20
2023-05-23T21:49:42.249Z,39.10
2023-05-23T21:52:09.237Z,39.00
2023-05-23T21:54:36.256Z,39.00
2023-05-23T21:57:03.259Z,38.90
2023-05-23T21:59:30.188Z,38.90
2023-05-23T22:01:57.188Z,38.90
2023-05-23T22:04:24.068Z,38.90
2023-05-23T22:06:52.038Z,38.90
2023-05-23T22:09:19.024Z,38.90
2023-05-23T22:11:46.085Z,38.90
2023-05-23T22:14:12.974Z,39.00
2023-05-23T22:16:40.224Z,39.00
2023-05-23T22:19:09.778Z,39.20
2023-05-23T22:21:37.036Z,39.10
2023-05-23T22:24:04.716Z,39.20
2023-05-23T22:26:32.179Z,39.30
2023-05-23T22:28:59.325Z,39.30
2023-05-23T22:31:26.417Z,39.20
2023-05-23T22:33:53.465Z,39.20
2023-05-23T22:36:22.099Z,39.20
2023-05-23T22:38:49.100Z,39.20
2023-05-23T22:41:15.946Z,39.50
2023-05-23T22:43:42.969Z,39.70
2023-05-23T22:46:09.858Z,39.50
2023-05-23T22:48:38.009Z,39.30
2023-05-23T22:51:05.902Z,39.20
2023-05-23T22:53:32.902Z,39.10
2023-05-23T22:55:59.887Z,39.00
2023-05-23T22:58:26.927Z,39.00
2023-05-23T23:00:53.791Z,39.00
2023-05-23T23:03:20.826Z,39.00
2023-05-23T23:05:47.917Z,38.90
2023-05-23T23:08:16.098Z,39.00
2023-05-23T23:10:43.863Z,38.90
2023-05-23T23:13:13.601Z,38.80
2023-05-23T23:15:42.801Z,38.80
2023-05-23T23:18:10.120Z,38.90
2023-05-23T23:20:38.863Z,38.80
2023-05-23T23:23:05.993Z,38.80
2023-05-23T23:25:33.382Z,38.80
2023-05-23T23:28:00.871Z,38.70
2023-05-23T23:30:28.152Z,38.70
2023-05-23T23:32:55.177Z,38.70
2023-05-23T23:35:22.258Z,38.70
2023-05-23T23:37:49.122Z,38.70
2023-05-23T23:40:16.161Z,38.90
2023-05-23T23:42:42.966Z,38.80
2023-05-23T23:45:10.526Z,39.00
2023-05-23T23:47:37.745Z,39.30
2023-05-23T23:50:05.048Z,39.50
2023-05-23T23:52:32.986Z,39.60
2023-05-23T23:54:59.950Z,39.70
2023-05-23T23:57:26.837Z,39.60
2023-05-23T23:59:53.655Z,39.60
